• Join FlightAware (Why Join?)
  • Login
  • US Flag GB Flag 
05:48 EDT


 

Airport Tracker/Info


-or-


 

Live Flight TrackerFlight Track Log ✈ RPA3228 ✈ 17-Sep-2013 ✈ KBNA - KDCA

Flight Track Log - Related Links

Times and Time Zones

All times are in EDT time to prevent confusion due to time zone crossing. See the RPA3228 flight status page for this flight to view local times or setup timezone preferences in your user account.

Time Position Orientation Groundspeed Altitude Reporting Facility
EDT Latitude Longitude Course Direction KTS MPH feet Rate Location/Type
07:41 36.1333 -86.7000 74° East 164 189 1,400  Level Nashville TRACON
07:42 36.1833 -86.7500 321° Northwest 222 255 4,500 2,460 Climbing Nashville TRACON
07:43 36.2000 -86.6667 76° East 272 313 7,100 2,520 Climbing Nashville TRACON
07:44 36.2965 -86.1601 50° Northeast  Level Estimated
07:45 36.3391 -86.0303 56° Northeast  Level Estimated
07:45 36.1939 -86.5456 94° East 330 380 10,500  Level Memphis Center
07:46 36.3708 -85.8956 74° East  Level FlightAware Approximate
07:46 36.1944 -86.4350 90° East 323 372 12,600  Level Memphis Center
07:47 36.1950 -86.3192 90° East 330 380 14,900 2,340 Climbing Memphis Center
07:48 36.1969 -86.1906 89° East 336 387 17,300 1,920 Climbing Memphis Center
07:49 36.2053 -86.0667 85° East 343 395 18,800 1,560 Climbing Memphis Center
07:51 36.2908 -85.8661 62° Northeast 376 433 21,900 1,620 Climbing Indianapolis Center
07:52 36.3494 -85.7400 60° Northeast 389 448 23,500 1,440 Climbing Indianapolis Center
07:53 36.4069 -85.6197 59° Northeast 401 461 24,900 1,380 Climbing Indianapolis Center
07:54 36.4661 -85.4967 59° Northeast 412 474 26,400 1,440 Climbing Indianapolis Center
07:55 36.5239 -85.3725 60° Northeast 413 475 27,900 1,320 Climbing Indianapolis Center
07:56 36.5844 -85.2439 60° Northeast 423 487 29,200 1,320 Climbing Indianapolis Center
07:57 36.6381 -85.1064 64° Northeast 437 503 30,700 1,380 Climbing Indianapolis Center
07:58 36.6817 -84.9597 70° East 446 513 32,100 1,560 Climbing Indianapolis Center
07:59 36.7350 -84.7858 69° East 445 512 33,900 1,500 Climbing Indianapolis Center
08:00 36.7775 -84.6428 70° East 440 506 35,200 1,080 Climbing Indianapolis Center
08:01 36.8211 -84.4992 69° East 440 506 36,200 840 Climbing Indianapolis Center
08:02 36.8608 -84.3700 69° East 441 507 37,000 360 Climbing Indianapolis Center
08:03 36.9103 -84.2028 70° East 438 504 37,000  Level Indianapolis Center
08:04 36.9514 -84.0625 70° East 431 496 37,000  Level Indianapolis Center
08:05 36.9947 -83.9231 69° East 427 491 37,000  Level Indianapolis Center
08:06 37.0361 -83.7847 69° East 424 488 37,000  Level Indianapolis Center
08:07 37.0761 -83.6458 70° East 423 487 37,000  Level Indianapolis Center
08:08 37.1169 -83.5075 70° East 422 486 37,000  Level Indianapolis Center
08:09 37.1581 -83.3656 70° East 427 491 37,000  Level Indianapolis Center
08:10 37.1994 -83.2239 70° East 430 495 37,000  Level Indianapolis Center
08:11 37.2411 -83.0825 70° East 429 494 37,000  Level Indianapolis Center
08:12 37.2878 -82.9161 71° East 429 494 37,000  Level Indianapolis Center
08:13 37.3286 -82.7733 70° East 430 495 37,000  Level Indianapolis Center
08:14 37.3683 -82.6297 71° East 432 497 37,000  Level Indianapolis Center
08:15 37.4086 -82.4869 70° East 431 496 37,000  Level Indianapolis Center
08:16 37.4492 -82.3439 70° East 432 497 37,000  Level Indianapolis Center
08:17 37.4875 -82.2022 71° East 428 493 37,000  Level Indianapolis Center
08:18 37.5272 -82.0619 70° East 425 489 37,000  Level Indianapolis Center
08:19 37.5661 -81.9206 71° East 425 489 37,000  Level Indianapolis Center
08:20 37.6047 -81.7794 71° East 426 490 37,000  Level Indianapolis Center
08:21 37.6486 -81.6156 71° East 423 487 37,000  Level Indianapolis Center
08:22 37.6833 -81.4903 71° East 427 491 37,000  Level Indianapolis Center
08:23 37.7261 -81.3286 71° East 418 481 37,000  Level Indianapolis Center
08:24 37.7625 -81.1883 72° East 428 493 37,000  Level Indianapolis Center
08:26 37.8072 -81.0481 68° East 437 503 37,000  Level Indianapolis Center
08:27 37.8594 -80.9008 66° East 453 521 37,000  Level Indianapolis Center
08:28 37.9119 -80.7522 66° East 460 529 37,000  Level Indianapolis Center
08:29 37.9642 -80.6042 66° East 462 532 37,000  Level Indianapolis Center
08:30 38.0214 -80.4428 66° East 458 527 37,000 -300 Level Indianapolis Center
08:31 38.0778 -80.2797 66° East 462 532 36,500 -1,140 Descending Indianapolis Center
08:32 38.1342 -80.1231 65° Northeast 462 532 34,700 -1,740 Descending Indianapolis Center
08:33 38.1850 -79.9786 66° East 461 531 33,000 -1,680 Descending Indianapolis Center
08:34 38.2372 -79.8306 66° East 468 539 31,300 -1,680 Descending Indianapolis Center
08:35 38.2892 -79.6808 66° East 471 542 29,600 -1,860 Descending Indianapolis Center
08:36 38.3508 -79.4983 67° East 476 548 27,600 -1,260 Descending Indianapolis Center
08:37 38.4008 -79.3536 66° East 462 532 27,000 -300 Descending Indianapolis Center
08:38 38.4444 -79.1997 70° East 463 533 27,000  Level Washington Center
08:39 38.4719 -79.0392 78° East 458 527 27,000 -180 Level Washington Center
08:40 38.4947 -78.9022 78° East 451 519 26,700 -1,380 Descending Washington Center
08:41 38.5178 -78.7361 80° East 438 504 24,400 -2,160 Descending Washington Center
08:42 38.5403 -78.5964 78° East 418 481 22,500 -1,440 Descending Washington Center
08:43 38.5625 -78.4567 78° East 407 468 21,500 -1,200 Descending Washington Center
08:44 38.5842 -78.3219 78° East 393 452 20,100 -1,620 Descending Washington Center
08:45 38.6142 -78.1928 73° East 382 440 18,400 -1,500 Descending Washington Center
08:46 38.6522 -78.0747 68° East 368 423 17,200 -1,680 Descending Washington Center
08:47 38.6900 -77.9589 67° East 361 415 15,000 -1,920 Descending Washington Center
08:48 38.7253 -77.8508 67° East 344 396 13,400 -1,500 Descending Washington Center
08:49 38.7728 -77.7672 54° Northeast 309 356 12,100 -1,320 Descending Washington Center
08:50 38.8242 -77.6886 50° Northeast 296 341 10,900 -1,260 Descending Washington Center
08:51 38.8614 -77.5831 66° East 289 333 9,700 -1,200 Descending Washington Center
08:52 38.9000 -77.4667 67° East 279 321 8,300 -1,260 Descending Potomac TRACON
08:53 38.8833 -77.3833 104° East 285 328 7,100 -1,200 Descending Potomac TRACON
08:54 38.8500 -77.3000 117° Southeast 261 300 6,100 -540 Descending Potomac TRACON
08:55 38.8167 -77.2333 123° Southeast 209 241 6,100  Level Potomac TRACON
08:56 38.7833 -77.1667 123° Southeast 213 245 6,100  Level Potomac TRACON
08:57 38.7500 -77.1167 131° Southeast 223 257 6,100  Level Potomac TRACON
08:58 38.6833 -77.1167 180° South 221 254 6,100 -420 Level Potomac TRACON
08:59 38.6333 -77.1000 165° South 216 249 5,400 -1,020 Descending Potomac TRACON
09:00 38.5667 -77.1000 180° South 221 254 4,100 -660 Descending Potomac TRACON
09:01 38.5167 -77.0667 152° Southeast 234 269 4,100 -60 Level Potomac TRACON
09:02 38.5333 -77.0167 67° East 196 226 4,000 -780 Descending Potomac TRACON
09:03 38.5833 -77.0167 360° North 184 212 2,600 -720 Descending Potomac TRACON
09:04 38.6333 -77.0167 360° North 186 214 2,600  Level Potomac TRACON
09:05 38.6833 -77.0167 360° North 187 215 2,600 -180 Level Potomac TRACON
09:06 38.7333 -77.0333 345° North 168 193 2,300 -600 Descending Potomac TRACON
09:07 38.7833 -77.0333 360° North 153 176 1,500 -720 Descending Potomac TRACON
09:08 38.8167 -77.0167 21° North 119 137 900 -600 Descending Potomac TRACON